ENT7987 EPKT-HESH
Flight info
| Callsign | ENT7987 |
|---|---|
| Flight time | 3h 31m |
| Altitude | 37000 |
| Route | REGTO DCT RAZEC DCT KEKED DCT LOMOS DCT NIKTI DCT MES UL609 RDS DCT VANZA DCT LAKTO L560 SHM |
| Aircraft | B38M/M-SDE1FGHILORVWXY/HB1 |
Departure
| Time | 2026-05-06 19:16 |
|---|---|
| Airport | Katowice Wojciech Korfanty International Airport (EPKT) |
Arrival
| Time | 2026-05-06 22:48 |
|---|---|
| Airport | Sharm El Sheikh International Airport (HESH) |
| Time | Latitude | Longitude | Altitude | Speed | Heading |
|---|---|---|---|---|---|
| 2026-05-06 18:33 | 50.47153 | 19.07695 | 1001 ft | 0 kts | 180° |
| 2026-05-06 19:07 | 50.47157 | 19.07695 | 1001 ft | 3 kts | 180° |
| 2026-05-06 19:07 | 50.47184 | 19.07695 | 1002 ft | 4 kts | 180° |
| 2026-05-06 19:08 | 50.47206 | 19.07695 | 1001 ft | 4 kts | 175° |
| 2026-05-06 19:08 | 50.47228 | 19.07683 | 1002 ft | 4 kts | 129° |
| 2026-05-06 19:08 | 50.47234 | 19.07651 | 1004 ft | 4 kts | 90° |
| 2026-05-06 19:08 | 50.47234 | 19.07619 | 1001 ft | 0 kts | 90° |
| 2026-05-06 19:11 | 50.47234 | 19.07625 | 1001 ft | 2 kts | 90° |
| 2026-05-06 19:11 | 50.47234 | 19.07684 | 1003 ft | 9 kts | 90° |
| 2026-05-06 19:12 | 50.47233 | 19.07834 | 1005 ft | 18 kts | 90° |
| 2026-05-06 19:12 | 50.47233 | 19.08053 | 1003 ft | 23 kts | 90° |
| 2026-05-06 19:12 | 50.47233 | 19.08334 | 1006 ft | 28 kts | 90° |
| 2026-05-06 19:12 | 50.47232 | 19.08641 | 1006 ft | 28 kts | 90° |
| 2026-05-06 19:13 | 50.47231 | 19.08952 | 1003 ft | 28 kts | 90° |
| 2026-05-06 19:13 | 50.47230 | 19.09227 | 1001 ft | 25 kts | 90° |
| 2026-05-06 19:13 | 50.47230 | 19.09507 | 1004 ft | 26 kts | 90° |
| 2026-05-06 19:13 | 50.47230 | 19.09784 | 1003 ft | 22 kts | 90° |
| 2026-05-06 19:14 | 50.47232 | 19.09983 | 1004 ft | 17 kts | 77° |
| 2026-05-06 19:14 | 50.47295 | 19.10142 | 1001 ft | 18 kts | 52° |
| 2026-05-06 19:14 | 50.47374 | 19.10303 | 1001 ft | 19 kts | 52° |
| 2026-05-06 19:14 | 50.47469 | 19.10442 | 1001 ft | 19 kts | 11° |
| 2026-05-06 19:15 | 50.47579 | 19.10428 | 1003 ft | 12 kts | 324° |
| 2026-05-06 19:15 | 50.47594 | 19.10336 | 1002 ft | 0 kts | 270° |
| 2026-05-06 19:15 | 50.47594 | 19.10227 | 1003 ft | 36 kts | 270° |
| 2026-05-06 19:15 | 50.47595 | 19.09426 | 1002 ft | 108 kts | 270° |
| 2026-05-06 19:16 | 50.47599 | 19.07911 | 1000 ft | 167 kts | 270° |
| 2026-05-06 19:16 | 50.47618 | 19.05901 | 1287 ft | 192 kts | 268° |
| 2026-05-06 19:16 | 50.47629 | 19.03781 | 2003 ft | 198 kts | 266° |
| 2026-05-06 19:16 | 50.47621 | 19.01629 | 2877 ft | 197 kts | 265° |
| 2026-05-06 19:17 | 50.47629 | 18.99357 | 3362 ft | 218 kts | 265° |
| 2026-05-06 19:17 | 50.47621 | 18.96906 | 4101 ft | 226 kts | 263° |
| 2026-05-06 19:17 | 50.47283 | 18.94583 | 5041 ft | 220 kts | 239° |
| 2026-05-06 19:17 | 50.46356 | 18.92616 | 5711 ft | 230 kts | 219° |
| 2026-05-06 19:18 | 50.44892 | 18.91504 | 6296 ft | 245 kts | 189° |
| 2026-05-06 19:18 | 50.43179 | 18.91789 | 7091 ft | 256 kts | 162° |
| 2026-05-06 19:18 | 50.41726 | 18.93484 | 7943 ft | 272 kts | 132° |
| 2026-05-06 19:18 | 50.40641 | 18.95960 | 8782 ft | 276 kts | 135° |
| 2026-05-06 19:19 | 50.39328 | 18.98156 | 9655 ft | 278 kts | 138° |
| 2026-05-06 19:19 | 50.37986 | 19.00404 | 10269 ft | 290 kts | 137° |
| 2026-05-06 19:19 | 50.36561 | 19.02797 | 10607 ft | 310 kts | 137° |
| 2026-05-06 19:19 | 50.35043 | 19.05345 | 10913 ft | 330 kts | 137° |
| 2026-05-06 19:20 | 50.33988 | 19.07119 | 11177 ft | 341 kts | 137° |
| 2026-05-06 19:20 | 50.31785 | 19.10850 | 11882 ft | 354 kts | 136° |
| 2026-05-06 19:20 | 50.30121 | 19.13711 | 12637 ft | 358 kts | 136° |
| 2026-05-06 19:20 | 50.28442 | 19.16621 | 13341 ft | 363 kts | 136° |
| 2026-05-06 19:21 | 50.26742 | 19.19578 | 14010 ft | 367 kts | 136° |
| 2026-05-06 19:21 | 50.25028 | 19.22560 | 14653 ft | 371 kts | 136° |
| 2026-05-06 19:21 | 50.23298 | 19.25581 | 15310 ft | 375 kts | 136° |
| 2026-05-06 19:21 | 50.21547 | 19.28630 | 15946 ft | 379 kts | 136° |
| 2026-05-06 19:22 | 50.19775 | 19.31712 | 16577 ft | 383 kts | 136° |
| 2026-05-06 19:22 | 50.17984 | 19.34827 | 17171 ft | 388 kts | 136° |
| 2026-05-06 19:22 | 50.16190 | 19.37936 | 17813 ft | 391 kts | 136° |
| 2026-05-06 19:22 | 50.14366 | 19.41103 | 18391 ft | 395 kts | 136° |
| 2026-05-06 19:23 | 50.12518 | 19.44301 | 18910 ft | 399 kts | 136° |
| 2026-05-06 19:23 | 50.10654 | 19.47529 | 19450 ft | 402 kts | 136° |
| 2026-05-06 19:23 | 50.08767 | 19.50787 | 19969 ft | 406 kts | 136° |
| 2026-05-06 19:23 | 50.06866 | 19.54070 | 20480 ft | 409 kts | 136° |
| 2026-05-06 19:24 | 50.04953 | 19.57374 | 20957 ft | 413 kts | 136° |
| 2026-05-06 19:24 | 50.03015 | 19.60710 | 21448 ft | 417 kts | 136° |
| 2026-05-06 19:24 | 50.01083 | 19.64033 | 21951 ft | 420 kts | 136° |
| 2026-05-06 19:24 | 49.99113 | 19.67419 | 22442 ft | 424 kts | 136° |
| 2026-05-06 19:25 | 49.97121 | 19.70812 | 22918 ft | 426 kts | 139° |
| 2026-05-06 19:25 | 49.94864 | 19.73756 | 23367 ft | 423 kts | 150° |
| 2026-05-06 19:25 | 49.92431 | 19.76389 | 23747 ft | 427 kts | 149° |
| 2026-05-06 19:25 | 49.89999 | 19.79092 | 24176 ft | 430 kts | 148° |
| 2026-05-06 19:26 | 49.87566 | 19.81818 | 24581 ft | 433 kts | 148° |
| 2026-05-06 19:26 | 49.85153 | 19.84532 | 24965 ft | 435 kts | 148° |
| 2026-05-06 19:26 | 49.82666 | 19.87329 | 25371 ft | 437 kts | 148° |
| 2026-05-06 19:26 | 49.80225 | 19.90072 | 25714 ft | 441 kts | 148° |
| 2026-05-06 19:27 | 49.77735 | 19.92866 | 26103 ft | 443 kts | 148° |
| 2026-05-06 19:27 | 49.75227 | 19.95677 | 26455 ft | 446 kts | 148° |
| 2026-05-06 19:27 | 49.72704 | 19.98502 | 26828 ft | 448 kts | 148° |
| 2026-05-06 19:27 | 49.70170 | 20.01335 | 27199 ft | 451 kts | 148° |
| 2026-05-06 19:28 | 49.67618 | 20.04184 | 27517 ft | 454 kts | 148° |
| 2026-05-06 19:28 | 49.65059 | 20.07037 | 27859 ft | 456 kts | 148° |
| 2026-05-06 19:28 | 49.62478 | 20.09911 | 28197 ft | 458 kts | 148° |
| 2026-05-06 19:28 | 49.59886 | 20.12793 | 28534 ft | 461 kts | 148° |
| 2026-05-06 19:29 | 49.57279 | 20.15689 | 28851 ft | 463 kts | 148° |
| 2026-05-06 19:29 | 49.54655 | 20.18599 | 29184 ft | 465 kts | 148° |
| 2026-05-06 19:29 | 49.52051 | 20.21483 | 29496 ft | 468 kts | 148° |
| 2026-05-06 19:29 | 49.49403 | 20.24413 | 29810 ft | 470 kts | 148° |
| 2026-05-06 19:30 | 49.46746 | 20.27347 | 30178 ft | 470 kts | 148° |
| 2026-05-06 19:30 | 49.44093 | 20.30273 | 30557 ft | 469 kts | 148° |
| 2026-05-06 19:30 | 49.41437 | 20.33199 | 30919 ft | 469 kts | 148° |
| 2026-05-06 19:30 | 49.38780 | 20.36121 | 31279 ft | 469 kts | 148° |
| 2026-05-06 19:31 | 49.36123 | 20.39040 | 31635 ft | 469 kts | 148° |
| 2026-05-06 19:31 | 49.33466 | 20.41954 | 32005 ft | 469 kts | 149° |
| 2026-05-06 19:31 | 49.29049 | 20.46792 | 32513 ft | 470 kts | 148° |
| 2026-05-06 19:32 | 49.26386 | 20.49703 | 32824 ft | 471 kts | 148° |
| 2026-05-06 19:32 | 49.23712 | 20.52621 | 33097 ft | 471 kts | 148° |
| 2026-05-06 19:32 | 49.21052 | 20.55521 | 33548 ft | 469 kts | 148° |
| 2026-05-06 19:32 | 49.18390 | 20.58419 | 33883 ft | 469 kts | 148° |
| 2026-05-06 19:33 | 49.15731 | 20.61309 | 34194 ft | 469 kts | 148° |
| 2026-05-06 19:33 | 49.13072 | 20.64197 | 34494 ft | 468 kts | 148° |
| 2026-05-06 19:33 | 49.10418 | 20.67074 | 34817 ft | 467 kts | 148° |
| 2026-05-06 19:33 | 49.07775 | 20.69936 | 35134 ft | 466 kts | 148° |
| 2026-05-06 19:34 | 49.05131 | 20.72796 | 35407 ft | 465 kts | 148° |
| 2026-05-06 19:34 | 49.02518 | 20.75618 | 35621 ft | 466 kts | 148° |
| 2026-05-06 19:34 | 48.99868 | 20.78476 | 35892 ft | 466 kts | 148° |
| 2026-05-06 19:34 | 48.97225 | 20.81322 | 36158 ft | 465 kts | 148° |
| 2026-05-06 19:35 | 48.94585 | 20.84163 | 36462 ft | 463 kts | 148° |
| 2026-05-06 19:35 | 48.91959 | 20.86984 | 36772 ft | 462 kts | 148° |
| 2026-05-06 19:35 | 48.89331 | 20.89804 | 36913 ft | 462 kts | 148° |
| 2026-05-06 19:35 | 48.86704 | 20.92619 | 36878 ft | 461 kts | 148° |
| 2026-05-06 19:36 | 48.81479 | 20.98205 | 36890 ft | 459 kts | 149° |
| 2026-05-06 19:36 | 48.76272 | 21.03760 | 36915 ft | 462 kts | 148° |
| 2026-05-06 19:37 | 48.71015 | 21.09352 | 36908 ft | 461 kts | 148° |
| 2026-05-06 19:37 | 48.65759 | 21.14929 | 36908 ft | 461 kts | 149° |
| 2026-05-06 19:38 | 48.60500 | 21.20495 | 36911 ft | 461 kts | 149° |
| 2026-05-06 19:38 | 48.55234 | 21.26055 | 36895 ft | 461 kts | 148° |
| 2026-05-06 19:39 | 48.52538 | 21.28653 | 36886 ft | 458 kts | 159° |
| 2026-05-06 19:39 | 48.49569 | 21.30247 | 36922 ft | 451 kts | 167° |
| 2026-05-06 19:39 | 48.43543 | 21.33107 | 36877 ft | 453 kts | 166° |
| 2026-05-06 19:40 | 48.37540 | 21.35865 | 36891 ft | 453 kts | 167° |
| 2026-05-06 19:40 | 48.31506 | 21.38606 | 36887 ft | 452 kts | 167° |
| 2026-05-06 19:41 | 48.25478 | 21.41333 | 36893 ft | 452 kts | 167° |
| 2026-05-06 19:41 | 48.19496 | 21.44034 | 36896 ft | 452 kts | 167° |
| 2026-05-06 19:42 | 48.13475 | 21.46745 | 36893 ft | 451 kts | 167° |
| 2026-05-06 19:42 | 48.07486 | 21.49437 | 36891 ft | 449 kts | 167° |
| 2026-05-06 19:43 | 48.01495 | 21.52122 | 36895 ft | 449 kts | 167° |
| 2026-05-06 19:43 | 47.95502 | 21.54802 | 36894 ft | 449 kts | 167° |
| 2026-05-06 19:44 | 47.89507 | 21.57476 | 36899 ft | 449 kts | 167° |
| 2026-05-06 19:44 | 47.83518 | 21.60140 | 36898 ft | 449 kts | 167° |
| 2026-05-06 19:45 | 47.77513 | 21.62806 | 36910 ft | 452 kts | 167° |
| 2026-05-06 19:45 | 47.71534 | 21.65453 | 36905 ft | 451 kts | 167° |
| 2026-05-06 19:46 | 47.65507 | 21.68115 | 36934 ft | 451 kts | 167° |
| 2026-05-06 19:46 | 47.59493 | 21.70766 | 36906 ft | 450 kts | 167° |
| 2026-05-06 19:47 | 47.53483 | 21.73409 | 36900 ft | 450 kts | 167° |
| 2026-05-06 19:47 | 47.47469 | 21.76046 | 36899 ft | 450 kts | 167° |
| 2026-05-06 19:48 | 47.41481 | 21.78665 | 36917 ft | 453 kts | 167° |
| 2026-05-06 19:48 | 47.35436 | 21.81304 | 36914 ft | 452 kts | 167° |
| 2026-05-06 19:49 | 47.29412 | 21.83927 | 36911 ft | 452 kts | 167° |
| 2026-05-06 19:49 | 47.23376 | 21.86549 | 36920 ft | 451 kts | 167° |
| 2026-05-06 19:50 | 47.17346 | 21.89163 | 36917 ft | 452 kts | 167° |
| 2026-05-06 19:50 | 47.11321 | 21.91768 | 36919 ft | 451 kts | 167° |
| 2026-05-06 19:51 | 47.05315 | 21.94358 | 36940 ft | 454 kts | 167° |
| 2026-05-06 19:51 | 46.99247 | 21.96969 | 36937 ft | 454 kts | 167° |
| 2026-05-06 19:52 | 46.93183 | 21.99572 | 36942 ft | 454 kts | 167° |
| 2026-05-06 19:52 | 46.87126 | 22.02167 | 36934 ft | 452 kts | 167° |
| 2026-05-06 19:53 | 46.81080 | 22.04750 | 36946 ft | 452 kts | 167° |
| 2026-05-06 19:53 | 46.75036 | 22.07326 | 36932 ft | 452 kts | 167° |
| 2026-05-06 19:54 | 46.68966 | 22.09908 | 36950 ft | 456 kts | 167° |
| 2026-05-06 19:54 | 46.62913 | 22.12476 | 36959 ft | 456 kts | 167° |
| 2026-05-06 19:55 | 46.56812 | 22.15059 | 36952 ft | 456 kts | 167° |
| 2026-05-06 19:55 | 46.50725 | 22.17629 | 36966 ft | 456 kts | 167° |
| 2026-05-06 19:56 | 46.44640 | 22.20193 | 36951 ft | 455 kts | 167° |
| 2026-05-06 19:56 | 46.38560 | 22.22749 | 36960 ft | 455 kts | 167° |
| 2026-05-06 19:57 | 46.32447 | 22.25312 | 36966 ft | 458 kts | 167° |
| 2026-05-06 19:57 | 46.26318 | 22.27877 | 36968 ft | 457 kts | 167° |
| 2026-05-06 19:58 | 46.20240 | 22.30415 | 36967 ft | 457 kts | 167° |
| 2026-05-06 19:58 | 46.14133 | 22.32957 | 36955 ft | 455 kts | 167° |
| 2026-05-06 19:59 | 46.08031 | 22.35493 | 36973 ft | 456 kts | 167° |
| 2026-05-06 19:59 | 46.01929 | 22.38022 | 36968 ft | 458 kts | 167° |
| 2026-05-06 20:00 | 45.95780 | 22.40565 | 36974 ft | 459 kts | 167° |
| 2026-05-06 20:00 | 45.89642 | 22.43098 | 36976 ft | 458 kts | 167° |
| 2026-05-06 20:01 | 45.83546 | 22.45608 | 36984 ft | 458 kts | 167° |
| 2026-05-06 20:01 | 45.77414 | 22.48126 | 36984 ft | 458 kts | 167° |
| 2026-05-06 20:02 | 45.71293 | 22.50635 | 36980 ft | 457 kts | 167° |
| 2026-05-06 20:02 | 45.65153 | 22.53145 | 36999 ft | 461 kts | 167° |
| 2026-05-06 20:03 | 45.58981 | 22.55663 | 36999 ft | 461 kts | 167° |
| 2026-05-06 20:03 | 45.52852 | 22.58158 | 37004 ft | 461 kts | 167° |
| 2026-05-06 20:04 | 45.46694 | 22.60658 | 37001 ft | 459 kts | 167° |
| 2026-05-06 20:04 | 45.40546 | 22.63149 | 37018 ft | 459 kts | 167° |
| 2026-05-06 20:05 | 45.34398 | 22.65635 | 37010 ft | 460 kts | 167° |
| 2026-05-06 20:05 | 45.28217 | 22.68128 | 37013 ft | 462 kts | 167° |
| 2026-05-06 20:06 | 45.22043 | 22.70612 | 37028 ft | 461 kts | 167° |
| 2026-05-06 20:06 | 45.15906 | 22.73076 | 37022 ft | 461 kts | 167° |
| 2026-05-06 20:07 | 45.09730 | 22.75550 | 37016 ft | 461 kts | 167° |
| 2026-05-06 20:07 | 45.03551 | 22.78021 | 37007 ft | 460 kts | 167° |
| 2026-05-06 20:08 | 44.97367 | 22.80487 | 37008 ft | 463 kts | 167° |
| 2026-05-06 20:08 | 44.91157 | 22.82958 | 37004 ft | 463 kts | 167° |
| 2026-05-06 20:09 | 44.84948 | 22.85423 | 36999 ft | 463 kts | 167° |
| 2026-05-06 20:09 | 44.78748 | 22.87879 | 36988 ft | 462 kts | 167° |
| 2026-05-06 20:10 | 44.72591 | 22.90312 | 36989 ft | 462 kts | 167° |
| 2026-05-06 20:10 | 44.66404 | 22.92752 | 36990 ft | 461 kts | 167° |
| 2026-05-06 20:11 | 44.60220 | 22.95186 | 36973 ft | 461 kts | 167° |
| 2026-05-06 20:11 | 44.54031 | 22.97616 | 36977 ft | 460 kts | 167° |
| 2026-05-06 20:12 | 44.47902 | 23.00017 | 36983 ft | 460 kts | 167° |
| 2026-05-06 20:12 | 44.41731 | 23.02430 | 36983 ft | 460 kts | 167° |
| 2026-05-06 20:13 | 44.35555 | 23.04839 | 36974 ft | 461 kts | 167° |
| 2026-05-06 20:13 | 44.29334 | 23.07260 | 36970 ft | 464 kts | 167° |
| 2026-05-06 20:14 | 44.23146 | 23.09664 | 36990 ft | 464 kts | 167° |
| 2026-05-06 20:14 | 44.16922 | 23.12077 | 36970 ft | 464 kts | 167° |
| 2026-05-06 20:15 | 44.10706 | 23.14482 | 36974 ft | 462 kts | 167° |
| 2026-05-06 20:15 | 44.04500 | 23.16877 | 36975 ft | 462 kts | 167° |
| 2026-05-06 20:16 | 43.98275 | 23.19275 | 36975 ft | 465 kts | 167° |
| 2026-05-06 20:16 | 43.92031 | 23.21675 | 36969 ft | 465 kts | 167° |
| 2026-05-06 20:17 | 43.85791 | 23.24068 | 36976 ft | 465 kts | 167° |
| 2026-05-06 20:17 | 43.79559 | 23.26516 | 36978 ft | 465 kts | 167° |
| 2026-05-06 20:18 | 43.73374 | 23.28961 | 36966 ft | 465 kts | 167° |
| 2026-05-06 20:18 | 43.67139 | 23.31419 | 36979 ft | 467 kts | 167° |
| 2026-05-06 20:19 | 43.60890 | 23.33877 | 36983 ft | 467 kts | 167° |
| 2026-05-06 20:19 | 43.54640 | 23.36330 | 36978 ft | 467 kts | 167° |
| 2026-05-06 20:20 | 43.49408 | 23.38380 | 36974 ft | 467 kts | 167° |
| 2026-05-06 20:20 | 43.43162 | 23.40822 | 36983 ft | 467 kts | 167° |
| 2026-05-06 20:21 | 43.36950 | 23.43246 | 36996 ft | 468 kts | 167° |
| 2026-05-06 20:21 | 43.30666 | 23.45692 | 36986 ft | 469 kts | 167° |
| 2026-05-06 20:22 | 43.24369 | 23.48138 | 36997 ft | 469 kts | 167° |
| 2026-05-06 20:22 | 43.18096 | 23.50569 | 37001 ft | 468 kts | 167° |
| 2026-05-06 20:23 | 43.11816 | 23.52999 | 37011 ft | 469 kts | 167° |
| 2026-05-06 20:23 | 43.05537 | 23.55423 | 37019 ft | 469 kts | 167° |
| 2026-05-06 20:24 | 42.99288 | 23.57829 | 37016 ft | 469 kts | 167° |
| 2026-05-06 20:24 | 42.92997 | 23.60247 | 37020 ft | 469 kts | 167° |
| 2026-05-06 20:25 | 42.86708 | 23.62659 | 37036 ft | 469 kts | 167° |
| 2026-05-06 20:25 | 42.80409 | 23.65070 | 37032 ft | 469 kts | 167° |
| 2026-05-06 20:26 | 42.74112 | 23.67475 | 37037 ft | 470 kts | 167° |
| 2026-05-06 20:26 | 42.67806 | 23.69878 | 37042 ft | 471 kts | 167° |
| 2026-05-06 20:27 | 42.61536 | 23.72263 | 37050 ft | 471 kts | 167° |
| 2026-05-06 20:27 | 42.55222 | 23.74659 | 37052 ft | 471 kts | 167° |
| 2026-05-06 20:28 | 42.48894 | 23.77055 | 37057 ft | 471 kts | 167° |
| 2026-05-06 20:28 | 42.42564 | 23.79447 | 37051 ft | 473 kts | 167° |
| 2026-05-06 20:29 | 42.36221 | 23.81840 | 37054 ft | 473 kts | 167° |
| 2026-05-06 20:29 | 42.29875 | 23.84228 | 37054 ft | 473 kts | 167° |
| 2026-05-06 20:30 | 42.20401 | 23.87784 | 37062 ft | 473 kts | 167° |
| 2026-05-06 20:31 | 42.14059 | 23.90158 | 37062 ft | 473 kts | 167° |
| 2026-05-06 20:31 | 42.07719 | 23.92527 | 37071 ft | 473 kts | 167° |
| 2026-05-06 20:32 | 42.01373 | 23.94892 | 37068 ft | 473 kts | 167° |
| 2026-05-06 20:32 | 41.95032 | 23.97252 | 37085 ft | 473 kts | 167° |
| 2026-05-06 20:33 | 41.88725 | 23.99594 | 37085 ft | 473 kts | 167° |
| 2026-05-06 20:33 | 41.82386 | 24.01942 | 37072 ft | 473 kts | 167° |
| 2026-05-06 20:34 | 41.76041 | 24.04289 | 37083 ft | 474 kts | 167° |
| 2026-05-06 20:34 | 41.69677 | 24.06638 | 37083 ft | 473 kts | 167° |
| 2026-05-06 20:35 | 41.63323 | 24.08979 | 37085 ft | 475 kts | 167° |
| 2026-05-06 20:35 | 41.56940 | 24.11325 | 37085 ft | 475 kts | 167° |
| 2026-05-06 20:36 | 41.50761 | 24.14403 | 37091 ft | 478 kts | 159° |
| 2026-05-06 20:36 | 41.44626 | 24.17875 | 37076 ft | 479 kts | 159° |
| 2026-05-06 20:37 | 41.38498 | 24.21357 | 37085 ft | 479 kts | 159° |
| 2026-05-06 20:37 | 41.32366 | 24.24836 | 37077 ft | 479 kts | 159° |
| 2026-05-06 20:38 | 41.26225 | 24.28312 | 37069 ft | 479 kts | 159° |
| 2026-05-06 20:38 | 41.20092 | 24.31776 | 37077 ft | 479 kts | 159° |
| 2026-05-06 20:39 | 41.13997 | 24.35213 | 37068 ft | 479 kts | 159° |
| 2026-05-06 20:39 | 41.07844 | 24.38675 | 37067 ft | 480 kts | 159° |
| 2026-05-06 20:40 | 41.01688 | 24.42132 | 37083 ft | 481 kts | 159° |
| 2026-05-06 20:40 | 40.95519 | 24.45587 | 37068 ft | 481 kts | 159° |
| 2026-05-06 20:41 | 40.89346 | 24.49040 | 37072 ft | 481 kts | 159° |
| 2026-05-06 20:41 | 40.83221 | 24.52458 | 37076 ft | 481 kts | 159° |
| 2026-05-06 20:42 | 40.77053 | 24.55893 | 37059 ft | 481 kts | 159° |
| 2026-05-06 20:42 | 40.70887 | 24.59320 | 37057 ft | 481 kts | 159° |
| 2026-05-06 20:43 | 40.64720 | 24.62741 | 37068 ft | 481 kts | 159° |
| 2026-05-06 20:43 | 40.58533 | 24.66166 | 37060 ft | 481 kts | 159° |
| 2026-05-06 20:44 | 40.52362 | 24.69575 | 37066 ft | 481 kts | 159° |
| 2026-05-06 20:44 | 40.46194 | 24.72976 | 37061 ft | 481 kts | 159° |
| 2026-05-06 20:45 | 40.40060 | 24.76351 | 37063 ft | 481 kts | 159° |
| 2026-05-06 20:45 | 40.33884 | 24.79743 | 37064 ft | 481 kts | 159° |
| 2026-05-06 20:46 | 40.27709 | 24.83127 | 37063 ft | 481 kts | 159° |
| 2026-05-06 20:46 | 40.21536 | 24.86504 | 37062 ft | 481 kts | 159° |
| 2026-05-06 20:47 | 40.15364 | 24.89873 | 37069 ft | 481 kts | 159° |
| 2026-05-06 20:47 | 40.09218 | 24.93221 | 37067 ft | 480 kts | 159° |
| 2026-05-06 20:48 | 40.03053 | 24.96574 | 37070 ft | 481 kts | 159° |
| 2026-05-06 20:48 | 39.96872 | 24.99929 | 37073 ft | 481 kts | 159° |
| 2026-05-06 20:49 | 39.90697 | 25.03273 | 37071 ft | 481 kts | 159° |
| 2026-05-06 20:49 | 39.84504 | 25.06621 | 37077 ft | 482 kts | 159° |
| 2026-05-06 20:50 | 39.78301 | 25.09967 | 37064 ft | 482 kts | 159° |
| 2026-05-06 20:50 | 39.72107 | 25.13302 | 37074 ft | 482 kts | 159° |
| 2026-05-06 20:51 | 39.65904 | 25.16636 | 37073 ft | 482 kts | 159° |
| 2026-05-06 20:51 | 39.59744 | 25.19940 | 37073 ft | 482 kts | 159° |
| 2026-05-06 20:52 | 39.53546 | 25.23258 | 37068 ft | 482 kts | 159° |
| 2026-05-06 20:52 | 39.47348 | 25.26569 | 37073 ft | 482 kts | 159° |
| 2026-05-06 20:53 | 39.41143 | 25.29878 | 37075 ft | 482 kts | 159° |
| 2026-05-06 20:53 | 39.34941 | 25.33179 | 37085 ft | 482 kts | 160° |
| 2026-05-06 20:54 | 39.28719 | 25.36484 | 37074 ft | 484 kts | 159° |
| 2026-05-06 20:54 | 39.22489 | 25.39787 | 37074 ft | 484 kts | 159° |
| 2026-05-06 20:55 | 39.16258 | 25.43085 | 37075 ft | 484 kts | 160° |
| 2026-05-06 20:55 | 39.10027 | 25.46375 | 37075 ft | 484 kts | 160° |
| 2026-05-06 20:56 | 39.03848 | 25.49633 | 37072 ft | 483 kts | 160° |
| 2026-05-06 20:56 | 38.97619 | 25.52910 | 37075 ft | 483 kts | 160° |
| 2026-05-06 20:57 | 38.91401 | 25.56175 | 37078 ft | 483 kts | 160° |
| 2026-05-06 20:57 | 38.85185 | 25.59433 | 37073 ft | 483 kts | 160° |
| 2026-05-06 20:58 | 38.78965 | 25.62687 | 37080 ft | 482 kts | 160° |
| 2026-05-06 20:58 | 38.72782 | 25.65916 | 37082 ft | 483 kts | 160° |
| 2026-05-06 20:59 | 38.66545 | 25.69166 | 37084 ft | 484 kts | 160° |
| 2026-05-06 20:59 | 38.60299 | 25.72415 | 37077 ft | 484 kts | 160° |
| 2026-05-06 21:00 | 38.54065 | 25.75653 | 37083 ft | 483 kts | 160° |
| 2026-05-06 21:00 | 38.47823 | 25.78889 | 37089 ft | 483 kts | 160° |
| 2026-05-06 21:01 | 38.41580 | 25.82120 | 37089 ft | 483 kts | 160° |
| 2026-05-06 21:01 | 38.35387 | 25.85318 | 37080 ft | 483 kts | 160° |
| 2026-05-06 21:02 | 38.29159 | 25.88530 | 37088 ft | 482 kts | 160° |
| 2026-05-06 21:02 | 38.23360 | 25.92740 | 37096 ft | 483 kts | 139° |
| 2026-05-06 21:03 | 38.18223 | 25.98331 | 37067 ft | 487 kts | 140° |
| 2026-05-06 21:03 | 38.13084 | 26.03991 | 37082 ft | 488 kts | 139° |
| 2026-05-06 21:04 | 38.07961 | 26.09655 | 37091 ft | 488 kts | 140° |
| 2026-05-06 21:04 | 38.02871 | 26.15272 | 37096 ft | 488 kts | 140° |
| 2026-05-06 21:05 | 37.97739 | 26.20923 | 37093 ft | 488 kts | 140° |
| 2026-05-06 21:05 | 37.92609 | 26.26563 | 37104 ft | 488 kts | 140° |
| 2026-05-06 21:06 | 37.87461 | 26.32210 | 37098 ft | 490 kts | 140° |
| 2026-05-06 21:06 | 37.82294 | 26.37851 | 37093 ft | 490 kts | 140° |
| 2026-05-06 21:07 | 37.77132 | 26.43478 | 37096 ft | 489 kts | 140° |
| 2026-05-06 21:07 | 37.72006 | 26.49054 | 37100 ft | 489 kts | 140° |
| 2026-05-06 21:08 | 37.66846 | 26.54665 | 37105 ft | 489 kts | 140° |
| 2026-05-06 21:08 | 37.62556 | 26.59327 | 37115 ft | 490 kts | 140° |
| 2026-05-06 21:09 | 37.57377 | 26.64944 | 37112 ft | 491 kts | 140° |
| 2026-05-06 21:09 | 37.52197 | 26.70552 | 37115 ft | 491 kts | 140° |
| 2026-05-06 21:10 | 37.47006 | 26.76161 | 37113 ft | 491 kts | 140° |
| 2026-05-06 21:10 | 37.41812 | 26.81763 | 37110 ft | 491 kts | 140° |
| 2026-05-06 21:11 | 37.36827 | 26.87641 | 37120 ft | 492 kts | 136° |
| 2026-05-06 21:11 | 37.31870 | 26.93583 | 37104 ft | 493 kts | 137° |
| 2026-05-06 21:12 | 37.26927 | 26.99476 | 37099 ft | 493 kts | 137° |
| 2026-05-06 21:12 | 37.21949 | 27.05396 | 37094 ft | 492 kts | 137° |
| 2026-05-06 21:13 | 37.16975 | 27.11302 | 37098 ft | 492 kts | 137° |
| 2026-05-06 21:13 | 37.11999 | 27.17199 | 37102 ft | 492 kts | 137° |
| 2026-05-06 21:14 | 37.07018 | 27.23089 | 37105 ft | 492 kts | 137° |
| 2026-05-06 21:14 | 37.02030 | 27.28977 | 37105 ft | 493 kts | 137° |
| 2026-05-06 21:15 | 36.97040 | 27.34856 | 37100 ft | 492 kts | 137° |
| 2026-05-06 21:15 | 36.92077 | 27.40692 | 37089 ft | 492 kts | 137° |
| 2026-05-06 21:16 | 36.87094 | 27.46542 | 37101 ft | 491 kts | 137° |
| 2026-05-06 21:16 | 36.82101 | 27.52391 | 37100 ft | 493 kts | 137° |
| 2026-05-06 21:17 | 36.77092 | 27.58249 | 37101 ft | 493 kts | 137° |
| 2026-05-06 21:17 | 36.72077 | 27.64102 | 37093 ft | 493 kts | 137° |
| 2026-05-06 21:18 | 36.67056 | 27.69953 | 37093 ft | 493 kts | 137° |
| 2026-05-06 21:18 | 36.62037 | 27.75788 | 37083 ft | 493 kts | 137° |
| 2026-05-06 21:19 | 36.57019 | 27.81612 | 37089 ft | 493 kts | 138° |
| 2026-05-06 21:19 | 36.51994 | 27.87433 | 37098 ft | 493 kts | 138° |
| 2026-05-06 21:20 | 36.46969 | 27.93244 | 37101 ft | 493 kts | 138° |
| 2026-05-06 21:20 | 36.41948 | 27.99040 | 37102 ft | 493 kts | 138° |
| 2026-05-06 21:21 | 36.36948 | 28.04803 | 37105 ft | 493 kts | 138° |
| 2026-05-06 21:21 | 36.32030 | 28.10758 | 37103 ft | 493 kts | 135° |
| 2026-05-06 21:22 | 36.27197 | 28.16802 | 37093 ft | 492 kts | 135° |
| 2026-05-06 21:22 | 36.22399 | 28.22768 | 37094 ft | 492 kts | 135° |
| 2026-05-06 21:23 | 36.17563 | 28.28770 | 37095 ft | 492 kts | 135° |
| 2026-05-06 21:23 | 36.12727 | 28.34761 | 37094 ft | 492 kts | 136° |
| 2026-05-06 21:24 | 36.07906 | 28.40722 | 37098 ft | 493 kts | 136° |
| 2026-05-06 21:24 | 36.03051 | 28.46715 | 37098 ft | 493 kts | 136° |
| 2026-05-06 21:25 | 35.98177 | 28.52718 | 37084 ft | 493 kts | 136° |
| 2026-05-06 21:25 | 35.93315 | 28.58697 | 37096 ft | 493 kts | 136° |
| 2026-05-06 21:26 | 35.88450 | 28.64668 | 37099 ft | 493 kts | 136° |
| 2026-05-06 21:26 | 35.83609 | 28.70600 | 37101 ft | 494 kts | 136° |
| 2026-05-06 21:27 | 35.78726 | 28.76571 | 37097 ft | 494 kts | 136° |
| 2026-05-06 21:27 | 35.73843 | 28.82532 | 37099 ft | 494 kts | 136° |
| 2026-05-06 21:28 | 35.68958 | 28.88484 | 37101 ft | 494 kts | 136° |
| 2026-05-06 21:28 | 35.64070 | 28.94429 | 37100 ft | 493 kts | 136° |
| 2026-05-06 21:29 | 35.59190 | 29.00353 | 37099 ft | 493 kts | 136° |
| 2026-05-06 21:29 | 35.54329 | 29.06244 | 37102 ft | 494 kts | 136° |
| 2026-05-06 21:30 | 35.49436 | 29.12164 | 37105 ft | 493 kts | 136° |
| 2026-05-06 21:30 | 35.44536 | 29.18081 | 37103 ft | 494 kts | 136° |
| 2026-05-06 21:31 | 35.39632 | 29.23991 | 37113 ft | 494 kts | 136° |
| 2026-05-06 21:31 | 35.34749 | 29.29866 | 37078 ft | 495 kts | 136° |
| 2026-05-06 21:32 | 35.29844 | 29.35757 | 37106 ft | 493 kts | 137° |
| 2026-05-06 21:32 | 35.22501 | 29.44556 | 37099 ft | 492 kts | 137° |
| 2026-05-06 21:33 | 35.17601 | 29.50415 | 37108 ft | 492 kts | 137° |
| 2026-05-06 21:33 | 35.12696 | 29.56268 | 37105 ft | 493 kts | 137° |
| 2026-05-06 21:34 | 35.07811 | 29.62089 | 37112 ft | 493 kts | 137° |
| 2026-05-06 21:34 | 35.02893 | 29.67937 | 37112 ft | 493 kts | 137° |
| 2026-05-06 21:35 | 34.97973 | 29.73777 | 37102 ft | 492 kts | 137° |
| 2026-05-06 21:35 | 34.93067 | 29.79592 | 37103 ft | 492 kts | 137° |
| 2026-05-06 21:36 | 34.88160 | 29.85397 | 37107 ft | 492 kts | 137° |
| 2026-05-06 21:36 | 34.83242 | 29.91208 | 37104 ft | 492 kts | 137° |
| 2026-05-06 21:37 | 34.78323 | 29.97009 | 37104 ft | 492 kts | 137° |
| 2026-05-06 21:37 | 34.73187 | 30.02480 | 37118 ft | 490 kts | 143° |
| 2026-05-06 21:38 | 34.67914 | 30.07758 | 37098 ft | 490 kts | 142° |
| 2026-05-06 21:38 | 34.62680 | 30.13047 | 37108 ft | 489 kts | 142° |
| 2026-05-06 21:39 | 34.57483 | 30.18295 | 37111 ft | 489 kts | 142° |
| 2026-05-06 21:39 | 34.52242 | 30.23578 | 37111 ft | 489 kts | 142° |
| 2026-05-06 21:40 | 34.47004 | 30.28850 | 37107 ft | 489 kts | 142° |
| 2026-05-06 21:40 | 34.41765 | 30.34113 | 37107 ft | 489 kts | 142° |
| 2026-05-06 21:41 | 34.36527 | 30.39367 | 37110 ft | 489 kts | 142° |
| 2026-05-06 21:41 | 34.31278 | 30.44624 | 37111 ft | 489 kts | 143° |
| 2026-05-06 21:42 | 34.26057 | 30.49842 | 37111 ft | 490 kts | 143° |
| 2026-05-06 21:42 | 34.20797 | 30.55092 | 37111 ft | 490 kts | 143° |
| 2026-05-06 21:43 | 34.15540 | 30.60329 | 37113 ft | 489 kts | 143° |
| 2026-05-06 21:43 | 34.10273 | 30.65568 | 37111 ft | 490 kts | 143° |
| 2026-05-06 21:44 | 34.05020 | 30.70784 | 37104 ft | 488 kts | 143° |
| 2026-05-06 21:44 | 33.99811 | 30.75949 | 37105 ft | 487 kts | 143° |
| 2026-05-06 21:45 | 33.94565 | 30.81141 | 37107 ft | 487 kts | 143° |
| 2026-05-06 21:45 | 33.89321 | 30.86322 | 37109 ft | 487 kts | 143° |
| 2026-05-06 21:46 | 33.84067 | 30.91506 | 37111 ft | 487 kts | 143° |
| 2026-05-06 21:46 | 33.78856 | 30.96637 | 37106 ft | 487 kts | 143° |
| 2026-05-06 21:47 | 33.73596 | 31.01810 | 37113 ft | 485 kts | 143° |
| 2026-05-06 21:47 | 33.68367 | 31.06943 | 37109 ft | 485 kts | 143° |
| 2026-05-06 21:48 | 33.63145 | 31.12062 | 37114 ft | 485 kts | 143° |
| 2026-05-06 21:48 | 33.57921 | 31.17173 | 37109 ft | 485 kts | 143° |
| 2026-05-06 21:49 | 33.52722 | 31.22252 | 37115 ft | 485 kts | 143° |
| 2026-05-06 21:49 | 33.47492 | 31.27352 | 37112 ft | 484 kts | 144° |
| 2026-05-06 21:50 | 33.42273 | 31.32436 | 37106 ft | 482 kts | 144° |
| 2026-05-06 21:50 | 33.37067 | 31.37498 | 37110 ft | 482 kts | 144° |
| 2026-05-06 21:51 | 33.31856 | 31.42555 | 37108 ft | 482 kts | 144° |
| 2026-05-06 21:51 | 33.26684 | 31.47568 | 37107 ft | 482 kts | 144° |
| 2026-05-06 21:52 | 33.21473 | 31.52609 | 37101 ft | 482 kts | 144° |
| 2026-05-06 21:52 | 33.16269 | 31.57637 | 37106 ft | 480 kts | 144° |
| 2026-05-06 21:53 | 33.11074 | 31.62648 | 37104 ft | 479 kts | 144° |
| 2026-05-06 21:53 | 33.05893 | 31.67638 | 37107 ft | 478 kts | 144° |
| 2026-05-06 21:54 | 33.00714 | 31.72618 | 37108 ft | 478 kts | 144° |
| 2026-05-06 21:54 | 32.95561 | 31.77566 | 37107 ft | 478 kts | 144° |
| 2026-05-06 21:55 | 32.90376 | 31.82536 | 37108 ft | 478 kts | 144° |
| 2026-05-06 21:55 | 32.86066 | 31.86662 | 37105 ft | 478 kts | 144° |
| 2026-05-06 21:56 | 32.80853 | 31.91647 | 37092 ft | 478 kts | 144° |
| 2026-05-06 21:56 | 32.75702 | 31.96564 | 37101 ft | 477 kts | 144° |
| 2026-05-06 21:57 | 32.70523 | 32.01501 | 37100 ft | 477 kts | 144° |
| 2026-05-06 21:57 | 32.65333 | 32.06441 | 37100 ft | 477 kts | 144° |
| 2026-05-06 21:58 | 32.60030 | 32.11046 | 37114 ft | 475 kts | 148° |
| 2026-05-06 21:58 | 32.54649 | 32.15613 | 37106 ft | 475 kts | 148° |
| 2026-05-06 21:59 | 32.49283 | 32.20183 | 37103 ft | 474 kts | 148° |
| 2026-05-06 21:59 | 32.43929 | 32.24736 | 37099 ft | 473 kts | 148° |
| 2026-05-06 22:00 | 32.38574 | 32.29283 | 37105 ft | 473 kts | 148° |
| 2026-05-06 22:00 | 32.33221 | 32.33823 | 37104 ft | 473 kts | 148° |
| 2026-05-06 22:01 | 32.27871 | 32.38352 | 37104 ft | 473 kts | 148° |
| 2026-05-06 22:01 | 32.22546 | 32.42854 | 37101 ft | 473 kts | 148° |
| 2026-05-06 22:02 | 32.17195 | 32.47371 | 37100 ft | 472 kts | 148° |
| 2026-05-06 22:02 | 32.11834 | 32.51869 | 37102 ft | 472 kts | 148° |
| 2026-05-06 22:03 | 32.06483 | 32.56354 | 37103 ft | 472 kts | 148° |
| 2026-05-06 22:03 | 32.01164 | 32.60806 | 37101 ft | 472 kts | 148° |
| 2026-05-06 22:04 | 31.95807 | 32.65282 | 37099 ft | 471 kts | 149° |
| 2026-05-06 22:04 | 31.90460 | 32.69744 | 37081 ft | 471 kts | 149° |
| 2026-05-06 22:05 | 31.85123 | 32.74191 | 37105 ft | 470 kts | 149° |
| 2026-05-06 22:05 | 31.79779 | 32.78638 | 37105 ft | 470 kts | 149° |
| 2026-05-06 22:06 | 31.74473 | 32.83047 | 37105 ft | 470 kts | 149° |
| 2026-05-06 22:06 | 31.69130 | 32.87480 | 37102 ft | 470 kts | 149° |
| 2026-05-06 22:07 | 31.63792 | 32.91902 | 37100 ft | 470 kts | 149° |
| 2026-05-06 22:07 | 31.58444 | 32.96326 | 37090 ft | 470 kts | 149° |
| 2026-05-06 22:08 | 31.53140 | 33.00708 | 37101 ft | 469 kts | 149° |
| 2026-05-06 22:08 | 31.47802 | 33.05112 | 37102 ft | 469 kts | 149° |
| 2026-05-06 22:09 | 31.42460 | 33.09513 | 37099 ft | 469 kts | 149° |
| 2026-05-06 22:09 | 31.37071 | 33.13816 | 37084 ft | 464 kts | 158° |
| 2026-05-06 22:10 | 31.31100 | 33.16391 | 37061 ft | 459 kts | 166° |
| 2026-05-06 22:10 | 31.25071 | 33.18796 | 37109 ft | 457 kts | 166° |
| 2026-05-06 22:11 | 31.19074 | 33.21136 | 37102 ft | 457 kts | 166° |
| 2026-05-06 22:11 | 31.13038 | 33.23483 | 37103 ft | 457 kts | 166° |
| 2026-05-06 22:12 | 31.06996 | 33.25829 | 37103 ft | 457 kts | 167° |
| 2026-05-06 22:12 | 31.00966 | 33.28167 | 37099 ft | 457 kts | 167° |
| 2026-05-06 22:13 | 30.94918 | 33.30510 | 37099 ft | 456 kts | 167° |
| 2026-05-06 22:13 | 30.88894 | 33.32839 | 37100 ft | 456 kts | 167° |
| 2026-05-06 22:14 | 30.82895 | 33.35156 | 37099 ft | 456 kts | 167° |
| 2026-05-06 22:14 | 30.76866 | 33.37481 | 37087 ft | 456 kts | 167° |
| 2026-05-06 22:15 | 30.70844 | 33.39801 | 37097 ft | 455 kts | 167° |
| 2026-05-06 22:15 | 30.64827 | 33.42116 | 37098 ft | 455 kts | 167° |
| 2026-05-06 22:16 | 30.58809 | 33.44428 | 37108 ft | 455 kts | 167° |
| 2026-05-06 22:16 | 30.52830 | 33.46723 | 37102 ft | 455 kts | 167° |
| 2026-05-06 22:17 | 30.46823 | 33.49024 | 37098 ft | 454 kts | 167° |
| 2026-05-06 22:17 | 30.40831 | 33.51317 | 37105 ft | 454 kts | 167° |
| 2026-05-06 22:18 | 30.34828 | 33.53611 | 37100 ft | 454 kts | 167° |
| 2026-05-06 22:18 | 30.28832 | 33.55901 | 37102 ft | 453 kts | 167° |
| 2026-05-06 22:19 | 30.22838 | 33.58185 | 37090 ft | 453 kts | 168° |
| 2026-05-06 22:19 | 30.16884 | 33.60452 | 37102 ft | 452 kts | 168° |
| 2026-05-06 22:20 | 30.10909 | 33.62724 | 37099 ft | 452 kts | 168° |
| 2026-05-06 22:20 | 30.04932 | 33.64995 | 37108 ft | 452 kts | 168° |
| 2026-05-06 22:21 | 29.98953 | 33.67263 | 37110 ft | 452 kts | 168° |
| 2026-05-06 22:21 | 29.92972 | 33.69528 | 37081 ft | 452 kts | 168° |
| 2026-05-06 22:22 | 29.86989 | 33.71794 | 37094 ft | 452 kts | 168° |
| 2026-05-06 22:22 | 29.81007 | 33.74056 | 37097 ft | 452 kts | 168° |
| 2026-05-06 22:23 | 29.75067 | 33.76299 | 37090 ft | 452 kts | 168° |
| 2026-05-06 22:23 | 29.69090 | 33.78553 | 37083 ft | 452 kts | 168° |
| 2026-05-06 22:24 | 29.63107 | 33.80808 | 37092 ft | 452 kts | 168° |
| 2026-05-06 22:24 | 29.60125 | 33.81931 | 36761 ft | 450 kts | 168° |
| 2026-05-06 22:24 | 29.57139 | 33.83056 | 35941 ft | 452 kts | 168° |
| 2026-05-06 22:25 | 29.54146 | 33.84183 | 35233 ft | 453 kts | 168° |
| 2026-05-06 22:25 | 29.51182 | 33.85297 | 34522 ft | 453 kts | 167° |
| 2026-05-06 22:25 | 29.48176 | 33.86427 | 33718 ft | 455 kts | 167° |
| 2026-05-06 22:25 | 29.45158 | 33.87560 | 32824 ft | 458 kts | 167° |
| 2026-05-06 22:26 | 29.42124 | 33.88699 | 31985 ft | 459 kts | 167° |
| 2026-05-06 22:26 | 29.39092 | 33.89837 | 31204 ft | 459 kts | 166° |
| 2026-05-06 22:26 | 29.36049 | 33.90978 | 30365 ft | 461 kts | 166° |
| 2026-05-06 22:26 | 29.32992 | 33.92123 | 29344 ft | 464 kts | 166° |
| 2026-05-06 22:27 | 29.29913 | 33.93275 | 28423 ft | 465 kts | 166° |
| 2026-05-06 22:27 | 29.26855 | 33.94420 | 27799 ft | 460 kts | 165° |
| 2026-05-06 22:27 | 29.23807 | 33.95462 | 26985 ft | 455 kts | 172° |
| 2026-05-06 22:27 | 29.20689 | 33.96094 | 26225 ft | 453 kts | 173° |
| 2026-05-06 22:28 | 29.17600 | 33.96705 | 25649 ft | 447 kts | 174° |
| 2026-05-06 22:28 | 29.14539 | 33.97301 | 25008 ft | 444 kts | 173° |
| 2026-05-06 22:28 | 29.11538 | 33.97883 | 24363 ft | 442 kts | 173° |
| 2026-05-06 22:28 | 29.08515 | 33.98469 | 23707 ft | 440 kts | 173° |
| 2026-05-06 22:29 | 29.05500 | 33.99052 | 22940 ft | 438 kts | 173° |
| 2026-05-06 22:29 | 29.02507 | 33.99631 | 22275 ft | 434 kts | 173° |
| 2026-05-06 22:29 | 28.99536 | 34.00205 | 21619 ft | 430 kts | 173° |
| 2026-05-06 22:29 | 28.96597 | 34.00773 | 20991 ft | 427 kts | 173° |
| 2026-05-06 22:30 | 28.93680 | 34.01336 | 20367 ft | 424 kts | 173° |
| 2026-05-06 22:30 | 28.90777 | 34.01897 | 19739 ft | 421 kts | 173° |
| 2026-05-06 22:30 | 28.87894 | 34.02453 | 19117 ft | 419 kts | 173° |
| 2026-05-06 22:30 | 28.85025 | 34.03006 | 18505 ft | 417 kts | 173° |
| 2026-05-06 22:31 | 28.82160 | 34.03558 | 17830 ft | 415 kts | 173° |
| 2026-05-06 22:31 | 28.79326 | 34.04103 | 17198 ft | 413 kts | 173° |
| 2026-05-06 22:31 | 28.76540 | 34.04639 | 16608 ft | 409 kts | 173° |
| 2026-05-06 22:31 | 28.73725 | 34.05181 | 16021 ft | 406 kts | 173° |
| 2026-05-06 22:32 | 28.70943 | 34.05715 | 15433 ft | 404 kts | 173° |
| 2026-05-06 22:32 | 28.68175 | 34.06247 | 14867 ft | 401 kts | 173° |
| 2026-05-06 22:32 | 28.65470 | 34.06785 | 14324 ft | 399 kts | 170° |
| 2026-05-06 22:32 | 28.62798 | 34.07652 | 13769 ft | 399 kts | 165° |
| 2026-05-06 22:33 | 28.60150 | 34.08605 | 13143 ft | 397 kts | 165° |
| 2026-05-06 22:33 | 28.57529 | 34.09542 | 12599 ft | 394 kts | 165° |
| 2026-05-06 22:33 | 28.54921 | 34.10465 | 12074 ft | 390 kts | 165° |
| 2026-05-06 22:33 | 28.52341 | 34.11370 | 11666 ft | 384 kts | 165° |
| 2026-05-06 22:34 | 28.49818 | 34.12250 | 11448 ft | 373 kts | 165° |
| 2026-05-06 22:34 | 28.47376 | 34.13101 | 11268 ft | 362 kts | 165° |
| 2026-05-06 22:34 | 28.45002 | 34.13925 | 11087 ft | 351 kts | 165° |
| 2026-05-06 22:34 | 28.42699 | 34.14725 | 10942 ft | 342 kts | 165° |
| 2026-05-06 22:35 | 28.40449 | 34.15504 | 10747 ft | 335 kts | 165° |
| 2026-05-06 22:35 | 28.38223 | 34.16275 | 10586 ft | 334 kts | 165° |
| 2026-05-06 22:35 | 28.35999 | 34.17047 | 10441 ft | 334 kts | 165° |
| 2026-05-06 22:35 | 28.33782 | 34.17814 | 10292 ft | 333 kts | 165° |
| 2026-05-06 22:36 | 28.31568 | 34.18578 | 10134 ft | 332 kts | 165° |
| 2026-05-06 22:36 | 28.29388 | 34.19331 | 10053 ft | 331 kts | 165° |
| 2026-05-06 22:36 | 28.27148 | 34.20101 | 10030 ft | 332 kts | 164° |
| 2026-05-06 22:36 | 28.24971 | 34.20847 | 10015 ft | 332 kts | 165° |
| 2026-05-06 22:37 | 28.22761 | 34.21609 | 10019 ft | 331 kts | 164° |
| 2026-05-06 22:37 | 28.20568 | 34.22373 | 9880 ft | 327 kts | 164° |
| 2026-05-06 22:37 | 28.18383 | 34.23134 | 9417 ft | 328 kts | 165° |
| 2026-05-06 22:37 | 28.16185 | 34.23738 | 9023 ft | 323 kts | 176° |
| 2026-05-06 22:38 | 28.13973 | 34.23584 | 8637 ft | 318 kts | 193° |
| 2026-05-06 22:38 | 28.11820 | 34.23027 | 8226 ft | 316 kts | 194° |
| 2026-05-06 22:38 | 28.09689 | 34.22445 | 7881 ft | 313 kts | 194° |
| 2026-05-06 22:38 | 28.07597 | 34.21874 | 7514 ft | 312 kts | 194° |
| 2026-05-06 22:39 | 28.05491 | 34.21287 | 7116 ft | 311 kts | 194° |
| 2026-05-06 22:39 | 28.03391 | 34.20689 | 6721 ft | 311 kts | 194° |
| 2026-05-06 22:39 | 28.01298 | 34.20079 | 6357 ft | 310 kts | 194° |
| 2026-05-06 22:39 | 27.99219 | 34.19462 | 5976 ft | 308 kts | 194° |
| 2026-05-06 22:40 | 27.97152 | 34.18847 | 5602 ft | 306 kts | 194° |
| 2026-05-06 22:40 | 27.95092 | 34.18236 | 5248 ft | 305 kts | 194° |
| 2026-05-06 22:40 | 27.93045 | 34.17628 | 4889 ft | 303 kts | 194° |
| 2026-05-06 22:40 | 27.91008 | 34.17023 | 4546 ft | 301 kts | 194° |
| 2026-05-06 22:41 | 27.87128 | 34.15881 | 4490 ft | 275 kts | 194° |
| 2026-05-06 22:41 | 27.85304 | 34.15364 | 4482 ft | 264 kts | 191° |
| 2026-05-06 22:41 | 27.83545 | 34.15405 | 4385 ft | 253 kts | 163° |
| 2026-05-06 22:42 | 27.82069 | 34.16366 | 4261 ft | 243 kts | 134° |
| 2026-05-06 22:42 | 27.81230 | 34.17980 | 4003 ft | 239 kts | 105° |
| 2026-05-06 22:42 | 27.81080 | 34.19830 | 3749 ft | 236 kts | 79° |
| 2026-05-06 22:42 | 27.81612 | 34.21570 | 3536 ft | 235 kts | 65° |
| 2026-05-06 22:43 | 27.82428 | 34.23159 | 3416 ft | 230 kts | 47° |
| 2026-05-06 22:43 | 27.83541 | 34.24394 | 3285 ft | 220 kts | 40° |
| 2026-05-06 22:43 | 27.84658 | 34.25540 | 3080 ft | 215 kts | 40° |
| 2026-05-06 22:43 | 27.85732 | 34.26653 | 2906 ft | 208 kts | 41° |
| 2026-05-06 22:44 | 27.86774 | 34.27739 | 2750 ft | 199 kts | 41° |
| 2026-05-06 22:44 | 27.87774 | 34.28785 | 2504 ft | 193 kts | 41° |
| 2026-05-06 22:44 | 27.88746 | 34.29798 | 2272 ft | 184 kts | 41° |
| 2026-05-06 22:44 | 27.89343 | 34.30422 | 2132 ft | 169 kts | 41° |
| 2026-05-06 22:45 | 27.90425 | 34.31552 | 1858 ft | 154 kts | 41° |
| 2026-05-06 22:45 | 27.91198 | 34.32358 | 1677 ft | 150 kts | 40° |
| 2026-05-06 22:45 | 27.91961 | 34.33156 | 1465 ft | 149 kts | 40° |
| 2026-05-06 22:45 | 27.92716 | 34.33947 | 1274 ft | 147 kts | 38° |
| 2026-05-06 22:46 | 27.93476 | 34.34728 | 1092 ft | 148 kts | 39° |
| 2026-05-06 22:46 | 27.93977 | 34.35246 | 944 ft | 146 kts | 39° |
| 2026-05-06 22:46 | 27.94713 | 34.36044 | 745 ft | 147 kts | 39° |
| 2026-05-06 22:46 | 27.95461 | 34.36810 | 565 ft | 144 kts | 39° |
| 2026-05-06 22:47 | 27.96192 | 34.37574 | 383 ft | 142 kts | 38° |
| 2026-05-06 22:47 | 27.96909 | 34.38315 | 216 ft | 137 kts | 38° |
| 2026-05-06 22:47 | 27.97549 | 34.38980 | 175 ft | 109 kts | 43° |
| 2026-05-06 22:47 | 27.97953 | 34.39398 | 177 ft | 53 kts | 43° |
| 2026-05-06 22:48 | 27.98118 | 34.39568 | 176 ft | 11 kts | 31° |
| 2026-05-06 22:48 | 27.98177 | 34.39531 | 176 ft | 11 kts | 314° |
| 2026-05-06 22:48 | 27.98231 | 34.39468 | 175 ft | 8 kts | 314° |
| 2026-05-06 22:48 | 27.98260 | 34.39431 | 175 ft | 2 kts | 306° |
| 2026-05-06 22:49 | 27.98276 | 34.39410 | 175 ft | 5 kts | 311° |
| 2026-05-06 22:49 | 27.98314 | 34.39362 | 175 ft | 12 kts | 313° |
| 2026-05-06 22:49 | 27.98382 | 34.39276 | 175 ft | 13 kts | 289° |
| 2026-05-06 22:49 | 27.98335 | 34.39191 | 175 ft | 15 kts | 224° |
| 2026-05-06 22:50 | 27.98253 | 34.39107 | 175 ft | 16 kts | 223° |
| 2026-05-06 22:50 | 27.98188 | 34.39038 | 175 ft | 9 kts | 223° |
| 2026-05-06 22:50 | 27.98151 | 34.39000 | 175 ft | 4 kts | 223° |
| 2026-05-06 22:50 | 27.98129 | 34.38992 | 175 ft | 4 kts | 165° |
| 2026-05-06 22:51 | 27.98107 | 34.39012 | 175 ft | 2 kts | 133° |
| 2026-05-06 22:51 | 27.98101 | 34.39020 | 175 ft | 0 kts | 133° |